Time;durP1;ratioP1;P1;durP2;ratioP2;P2;SDS_P1;SDS_P2;PMS_P1;PMS_P2;Temp;Humidity;BMP_temperature;BMP_pressure;BME280_temperature;BME280_humidity;BME280_pressure;Samples;Min_cycle;Max_cycle;Signal;HPM_P1;HPM_P2
2022/07/20 00:01:07;;;;;;;4.13;2.80;;;;;;;27.98;43.56;101329.78;5072438;28;20396;-75
2022/07/20 00:03:35;;;;;;;4.07;3.00;;;;;;;27.98;43.37;101330.63;5071322;28;20048;-75
2022/07/20 00:06:02;;;;;;;4.50;2.30;;;;;;;27.99;43.51;101343.19;5071221;28;20067;-75
2022/07/20 00:11:22;;;;;;;4.15;2.75;;;;;;;27.99;44.08;101339.63;5071261;28;20049;-76
2022/07/20 00:13:58;;;;;;;5.97;2.83;;;;;;;27.99;43.62;101336.91;5089224;28;20044;-76
2022/07/20 00:16:28;;;;;;;4.20;3.17;;;;;;;27.99;44.29;101340.47;5092576;28;20468;-76
2022/07/20 00:18:55;;;;;;;5.57;3.22;;;;;;;28.00;44.05;101341.34;5093112;28;20052;-76
2022/07/20 00:21:23;;;;;;;4.72;2.80;;;;;;;28.00;44.12;101338.63;5092911;28;20472;-76
2022/07/20 00:23:50;;;;;;;3.22;2.55;;;;;;;28.00;44.31;101338.63;5092301;28;20047;-76
2022/07/20 00:26:18;;;;;;;2.90;2.33;;;;;;;28.00;43.84;101338.63;5095545;28;20506;-76
2022/07/20 00:28:45;;;;;;;6.82;2.90;;;;;;;28.01;44.14;101337.59;5096730;28;20055;-76
2022/07/20 00:31:13;;;;;;;4.25;2.47;;;;;;;28.00;44.22;101341.34;5096785;28;20048;-76
2022/07/20 00:33:46;;;;;;;4.13;2.35;;;;;;;28.00;43.91;101339.47;5096132;28;20062;-76
2022/07/20 00:36:18;;;;;;;3.92;2.58;;;;;;;28.00;43.94;101344.91;5096108;28;20411;-76
2022/07/20 00:38:46;;;;;;;4.15;2.70;;;;;;;28.00;43.88;101344.06;5096330;28;20048;-76
2022/07/20 00:41:14;;;;;;;5.53;2.95;;;;;;;28.00;43.87;101339.47;5094192;28;20495;-75
2022/07/20 00:43:57;;;;;;;4.18;2.65;;;;;;;28.00;44.04;101335.91;5096262;28;20411;-76
2022/07/20 00:46:25;;;;;;;3.72;2.53;;;;;;;28.00;43.96;101336.75;5077847;28;20096;-76
2022/07/20 00:48:56;;;;;;;4.32;2.47;;;;;;;28.00;44.23;101336.75;5095778;28;20495;-76
2022/07/20 00:51:24;;;;;;;4.38;2.90;;;;;;;28.01;44.08;101332.16;5096238;28;20048;-76
2022/07/20 00:53:53;;;;;;;4.72;2.80;;;;;;;28.00;44.32;101333.19;5095867;28;20063;-76
2022/07/20 00:56:21;;;;;;;5.10;2.83;;;;;;;28.01;44.24;101334.88;5094598;28;20051;-76
2022/07/20 00:58:48;;;;;;;4.43;3.33;;;;;;;28.01;44.34;101330.28;5078381;28;20040;-75
2022/07/20 01:01:24;;;;;;;4.38;2.95;;;;;;;28.01;44.19;101327.56;5074007;28;20053;-75
2022/07/20 01:03:52;;;;;;;4.60;2.50;;;;;;;28.00;44.08;101328.59;5076026;28;20511;-75
2022/07/20 01:06:19;;;;;;;6.20;2.67;;;;;;;28.00;44.33;101336.75;5075182;28;20043;-75
2022/07/20 01:08:49;;;;;;;4.60;2.83;;;;;;;28.02;44.28;101331.97;5075247;28;20045;-76
2022/07/20 01:11:18;;;;;;;4.07;2.40;;;;;;;28.02;44.33;101331.97;5073453;28;20060;-76
2022/07/20 01:13:46;;;;;;;3.92;2.22;;;;;;;28.01;44.38;101324.84;5073894;28;20389;-75
2022/07/20 01:16:13;;;;;;;4.82;3.30;;;;;;;28.01;44.60;101327.56;5075456;28;20044;-76
2022/07/20 01:18:41;;;;;;;4.72;2.47;;;;;;;28.02;44.63;101328.41;5073436;28;20063;-76
2022/07/20 01:21:08;;;;;;;4.07;2.53;;;;;;;28.02;44.94;101333.84;5075265;28;20059;-76
2022/07/20 01:23:36;;;;;;;3.72;2.50;;;;;;;28.02;44.51;101336.56;5075041;28;20052;-76
2022/07/20 01:26:03;;;;;;;3.20;2.85;;;;;;;28.01;44.69;101335.72;5074956;28;20048;-76
2022/07/20 01:28:31;;;;;;;3.28;2.67;;;;;;;28.02;44.58;101331.97;5078158;28;20059;-76
2022/07/20 01:30:58;;;;;;;4.20;2.47;;;;;;;28.02;45.02;101331.13;5095143;28;20039;-76
2022/07/20 01:33:25;;;;;;;4.30;2.90;;;;;;;28.02;44.55;101329.25;5095022;28;20475;-75
2022/07/20 01:35:53;;;;;;;4.63;2.97;;;;;;;28.02;44.94;101334.69;5095224;28;20051;-74
2022/07/20 01:38:20;;;;;;;4.80;2.47;;;;;;;28.04;45.01;101342.69;5094221;28;20040;-75
2022/07/20 01:40:48;;;;;;;5.13;3.00;;;;;;;28.03;45.14;101339.09;5094919;28;20079;-75
2022/07/20 01:43:15;;;;;;;4.30;2.53;;;;;;;28.03;44.93;101340.97;5095129;28;20550;-75
2022/07/20 01:45:43;;;;;;;4.13;2.35;;;;;;;28.03;45.30;101335.53;5095102;28;20051;-75
2022/07/20 01:48:11;;;;;;;4.10;2.30;;;;;;;28.03;45.24;101335.53;5093258;28;20051;-76
2022/07/20 01:50:39;;;;;;;4.93;2.90;;;;;;;28.03;45.42;101336.38;5094140;28;20044;-76
2022/07/20 01:53:07;;;;;;;5.47;2.83;;;;;;;28.03;45.53;101333.66;5095183;28;20051;-75
2022/07/20 01:55:35;;;;;;;3.88;2.58;;;;;;;28.02;45.50;101331.97;5076788;28;20511;-75
2022/07/20 01:58:02;;;;;;;3.75;2.22;;;;;;;28.03;45.37;101335.53;5091414;28;20464;-75
2022/07/20 02:00:32;;;;;;;4.28;2.65;;;;;;;28.03;45.20;101339.09;5073721;28;20396;-76
2022/07/20 02:02:59;;;;;;;4.57;2.88;;;;;;;28.03;45.42;101339.09;5074071;28;20045;-75
2022/07/20 02:05:26;;;;;;;3.80;2.97;;;;;;;28.04;45.66;101342.69;5074124;28;20045;-76
2022/07/20 02:07:54;;;;;;;4.18;2.85;;;;;;;28.03;45.36;101333.66;5074437;28;20040;-76
2022/07/20 02:10:21;;;;;;;3.40;2.70;;;;;;;28.03;45.45;101341.81;5073154;28;20045;-75
2022/07/20 02:12:48;;;;;;;3.63;2.33;;;;;;;28.03;45.62;101336.38;5074218;28;20044;-76
2022/07/20 02:16:14;;;;;;;3.40;2.35;;;;;;;28.02;45.47;101337.41;5093403;28;20408;-76
2022/07/20 02:18:07;;;;;;;5.60;2.63;;;;;;;28.03;45.30;101336.38;5094066;28;20047;-76
2022/07/20 02:20:35;;;;;;;3.13;2.20;;;;;;;28.02;45.65;101334.69;5092673;28;20056;-75
2022/07/20 02:23:04;;;;;;;3.42;2.60;;;;;;;28.02;45.50;101337.41;5094520;28;20063;-75
2022/07/20 02:25:33;;;;;;;3.38;2.33;;;;;;;28.03;45.58;101339.09;5094432;28;20054;-74
2022/07/20 02:28:07;;;;;;;3.90;2.45;;;;;;;28.03;45.29;101338.25;5094122;28;20476;-75
2022/07/20 02:30:35;;;;;;;5.88;3.20;;;;;;;28.03;45.75;101332.81;5094038;28;20079;-75
2022/07/20 02:33:03;;;;;;;5.68;2.72;;;;;;;28.03;45.75;101332.81;5092990;28;20499;-75
2022/07/20 02:35:30;;;;;;;5.80;3.10;;;;;;;28.02;45.65;101329.25;5094231;28;20047;-75
2022/07/20 02:37:58;;;;;;;4.10;2.65;;;;;;;28.03;45.61;101328.22;5093661;28;20039;-75
2022/07/20 02:40:26;;;;;;;4.05;3.08;;;;;;;28.02;45.19;101326.53;5093996;28;20496;-75
2022/07/20 02:42:53;;;;;;;4.72;3.10;;;;;;;28.03;45.38;101327.38;5093866;28;20044;-75
2022/07/20 02:45:22;;;;;;;6.93;3.15;;;;;;;28.03;45.31;101325.50;5093942;28;20044;-75
2022/07/20 02:47:49;;;;;;;6.15;3.63;;;;;;;28.03;45.33;101327.38;5092393;28;20040;-75
2022/07/20 02:50:17;;;;;;;5.80;2.90;;;;;;;28.03;45.20;101330.09;5092948;28;20040;-76
2022/07/20 02:52:44;;;;;;;6.18;3.40;;;;;;;28.02;45.08;101331.97;5091777;28;20052;-75
2022/07/20 02:55:12;;;;;;;5.22;2.90;;;;;;;28.02;45.19;101331.13;5093601;28;20051;-75
2022/07/20 02:57:40;;;;;;;4.57;3.00;;;;;;;28.02;45.41;101331.97;5092483;28;20051;-75
2022/07/20 03:00:10;;;;;;;6.38;2.80;;;;;;;28.01;45.55;101324.84;5081802;28;20032;-75
2022/07/20 03:02:37;;;;;;;5.10;2.90;;;;;;;28.01;45.51;101333.00;5090354;28;20040;-75
2022/07/20 03:05:05;;;;;;;6.85;2.85;;;;;;;28.01;45.50;101337.59;5093867;28;20067;-75
2022/07/20 03:07:33;;;;;;;5.75;2.97;;;;;;;28.01;45.28;101335.72;5093676;28;20047;-75
2022/07/20 03:10:00;;;;;;;4.80;2.42;;;;;;;28.00;45.49;101328.59;5093575;28;20058;-75
2022/07/20 03:12:28;;;;;;;7.30;3.13;;;;;;;28.00;45.14;101328.59;5093040;28;20048;-75
2022/07/20 03:14:55;;;;;;;5.65;2.90;;;;;;;28.01;45.48;101337.59;5092203;28;20052;-75
2022/07/20 03:17:23;;;;;;;3.72;2.63;;;;;;;28.01;45.58;101332.16;5093093;28;20055;-75
2022/07/20 03:19:50;;;;;;;5.28;2.92;;;;;;;28.01;45.59;101334.88;5093367;28;20092;-74
2022/07/20 03:22:18;;;;;;;5.45;2.83;;;;;;;28.00;45.48;101328.59;5093513;28;20400;-75
2022/07/20 03:24:45;;;;;;;5.45;3.28;;;;;;;28.00;45.63;101335.91;5091785;28;20059;-74
2022/07/20 03:27:12;;;;;;;4.60;2.97;;;;;;;28.01;45.65;101343.03;5093157;28;20488;-74
2022/07/20 03:29:42;;;;;;;4.05;2.63;;;;;;;28.00;45.56;101344.91;5092099;28;20054;-74
2022/07/20 03:32:09;;;;;;;5.85;3.30;;;;;;;28.00;45.40;101344.06;5092887;28;20063;-74
2022/07/20 03:34:36;;;;;;;5.88;2.90;;;;;;;28.00;45.44;101339.47;5092944;28;20051;-75
2022/07/20 03:37:04;;;;;;;3.35;2.50;;;;;;;28.01;45.77;101343.88;5092989;28;20040;-75
2022/07/20 03:39:31;;;;;;;3.60;2.85;;;;;;;28.00;46.45;101353.09;5092974;28;20048;-75
2022/07/20 03:41:58;;;;;;;4.45;2.70;;;;;;;28.00;46.47;101344.91;5092672;28;20045;-76
2022/07/20 03:44:26;;;;;;;3.83;2.80;;;;;;;28.00;46.55;101346.78;5092733;28;20051;-76
2022/07/20 03:46:53;;;;;;;5.55;2.67;;;;;;;27.99;46.54;101354.09;5093262;28;20036;-76
2022/07/20 03:49:21;;;;;;;4.95;2.85;;;;;;;28.00;46.76;101344.06;5092703;28;20071;-76
2022/07/20 03:51:48;;;;;;;7.25;3.20;;;;;;;28.00;46.51;101349.50;5092630;28;20048;-75
2022/07/20 03:54:16;;;;;;;5.65;3.15;;;;;;;27.98;46.22;101355.13;5093091;28;20063;-76
2022/07/20 03:56:43;;;;;;;5.95;2.70;;;;;;;27.98;46.37;101352.41;5092613;28;20048;-76
2022/07/20 03:59:11;;;;;;;4.35;2.92;;;;;;;27.97;46.25;101355.31;5093025;28;20407;-76
2022/07/20 04:01:39;;;;;;;5.55;2.92;;;;;;;27.97;46.41;101352.59;5083410;28;20043;-76
2022/07/20 04:04:07;;;;;;;4.70;2.85;;;;;;;27.97;46.20;101356.16;5075392;28;20048;-75
2022/07/20 04:06:35;;;;;;;4.03;2.67;;;;;;;27.96;45.92;101356.34;5076932;28;20049;-75
2022/07/20 04:09:03;;;;;;;4.78;2.95;;;;;;;27.96;46.34;101351.75;5076461;28;20114;-75
2022/07/20 04:11:31;;;;;;;4.60;3.22;;;;;;;27.96;46.36;101353.63;5076656;28;20044;-75
2022/07/20 04:13:58;;;;;;;4.03;2.78;;;;;;;27.95;46.17;101358.19;5076815;28;20044;-75
2022/07/20 04:16:25;;;;;;;5.78;3.20;;;;;;;27.95;46.07;101366.34;5096730;28;20044;-75
2022/07/20 04:18:52;;;;;;;4.38;3.17;;;;;;;27.95;46.17;101360.06;5096480;28;20395;-75
2022/07/20 04:21:20;;;;;;;5.35;3.05;;;;;;;27.95;46.16;101363.63;5096824;28;20044;-75
2022/07/20 04:23:47;;;;;;;9.00;3.10;;;;;;;27.94;46.39;101372.81;5094760;28;20063;-75
2022/07/20 04:26:15;;;;;;;3.67;2.83;;;;;;;27.94;46.06;101370.09;5095044;28;20048;-75
2022/07/20 04:28:42;;;;;;;3.30;2.58;;;;;;;27.93;46.18;101376.56;5096455;28;20048;-75
2022/07/20 04:31:09;;;;;;;4.13;2.78;;;;;;;27.93;46.58;101373.84;5096541;28;20399;-76
2022/07/20 04:33:37;;;;;;;3.55;2.75;;;;;;;27.94;46.29;101377.41;5096598;28;20048;-76
2022/07/20 04:36:05;;;;;;;4.32;3.55;;;;;;;27.94;46.58;101381.00;5096203;28;20044;-76
2022/07/20 04:38:32;;;;;;;4.70;3.35;;;;;;;27.93;46.82;101376.56;5094550;28;20059;-76
2022/07/20 04:40:59;;;;;;;3.72;2.90;;;;;;;27.93;46.54;101387.47;5098115;28;20064;-75
2022/07/20 04:43:27;;;;;;;3.90;3.03;;;;;;;27.95;46.75;101392.72;5101765;28;20071;-76
2022/07/20 04:45:54;;;;;;;3.47;2.67;;;;;;;27.93;46.62;101392.91;5102294;28;20044;-76
2022/07/20 04:48:24;;;;;;;5.18;3.17;;;;;;;27.94;46.43;101394.59;5097671;28;20484;-75
2022/07/20 04:50:51;;;;;;;5.03;3.45;;;;;;;27.94;46.60;101391.88;5095223;28;20052;-75
2022/07/20 04:53:19;;;;;;;5.97;3.47;;;;;;;27.94;46.47;101388.31;5096945;28;20056;-76
2022/07/20 04:55:46;;;;;;;4.70;2.85;;;;;;;27.93;46.24;101398.34;5095803;28;20491;-75
2022/07/20 04:58:13;;;;;;;5.40;3.30;;;;;;;27.94;45.98;101391.88;5095857;28;20396;-76
2022/07/20 05:00:41;;;;;;;7.75;3.70;;;;;;;27.93;45.66;101387.47;5094380;28;20048;-76
2022/07/20 05:03:08;;;;;;;4.70;3.72;;;;;;;27.94;46.02;101388.31;5073593;28;20053;-76
2022/07/20 05:05:36;;;;;;;9.25;3.65;;;;;;;27.93;46.06;101389.34;5075627;28;20044;-76
2022/07/20 05:08:04;;;;;;;4.45;3.42;;;;;;;27.94;46.00;101385.59;5075501;28;20041;-75
2022/07/20 05:10:31;;;;;;;6.32;3.60;;;;;;;27.94;45.62;101388.31;5073278;28;20408;-75
2022/07/20 05:12:58;;;;;;;6.00;3.22;;;;;;;27.93;45.82;101390.19;5074320;28;20048;-75
2022/07/20 05:15:26;;;;;;;5.55;3.47;;;;;;;27.92;45.93;101396.66;5073444;28;20056;-75
2022/07/20 05:17:53;;;;;;;5.53;3.47;;;;;;;27.93;46.06;101408.38;5057590;28;20056;-75
2022/07/20 05:20:21;;;;;;;5.78;3.20;;;;;;;27.93;46.09;101409.22;5075067;28;20481;-75
2022/07/20 05:22:48;;;;;;;4.57;3.15;;;;;;;27.93;46.21;101403.78;5073691;28;20071;-76
2022/07/20 05:25:16;;;;;;;5.40;3.58;;;;;;;27.93;46.72;101406.50;5075362;28;20045;-75
2022/07/20 05:27:43;;;;;;;6.30;3.15;;;;;;;27.92;46.48;101401.25;5075203;28;20043;-75
2022/07/20 05:30:10;;;;;;;5.03;3.25;;;;;;;27.93;46.49;101400.22;5077193;28;20048;-75
2022/07/20 05:32:38;;;;;;;6.03;3.40;;;;;;;27.93;46.90;101403.78;5095041;28;20048;-75
2022/07/20 05:35:08;;;;;;;5.25;3.13;;;;;;;27.93;47.34;101406.50;5095030;28;20051;-76
2022/07/20 05:37:36;;;;;;;4.15;3.00;;;;;;;27.92;46.88;101404.81;5095192;28;20044;-75
2022/07/20 05:40:04;;;;;;;7.20;3.22;;;;;;;27.93;46.85;101408.38;5094720;28;20495;-75
2022/07/20 05:42:31;;;;;;;4.28;3.10;;;;;;;27.93;47.24;101411.09;5093098;28;20492;-75
2022/07/20 05:44:59;;;;;;;6.75;3.28;;;;;;;27.93;46.95;101420.13;5095966;28;20048;-75
2022/07/20 05:47:26;;;;;;;4.35;3.03;;;;;;;27.93;46.81;101419.28;5094901;28;20487;-76
2022/07/20 05:49:53;;;;;;;6.22;3.45;;;;;;;27.93;46.78;101431.00;5093407;28;20047;-76
2022/07/20 05:52:20;;;;;;;3.40;2.60;;;;;;;27.94;46.88;101429.97;5095218;28;20048;-76
2022/07/20 05:54:48;;;;;;;5.70;3.67;;;;;;;27.94;46.46;101429.13;5094598;28;20043;-76
2022/07/20 05:57:15;;;;;;;5.93;3.30;;;;;;;27.94;46.71;101431.84;5094950;28;20385;-76
2022/07/20 05:59:43;;;;;;;5.25;3.30;;;;;;;27.94;46.87;101429.13;5094698;28;20055;-76
2022/07/20 06:02:10;;;;;;;6.10;3.50;;;;;;;27.95;46.61;101434.38;5091552;28;20055;-76
2022/07/20 06:04:38;;;;;;;4.85;3.40;;;;;;;27.93;46.42;101431.00;5073316;28;20069;-76
2022/07/20 06:07:05;;;;;;;4.40;3.50;;;;;;;27.94;46.39;101435.41;5074227;28;20067;-74
2022/07/20 06:09:33;;;;;;;4.63;3.42;;;;;;;27.94;46.90;101434.56;5074789;28;20052;-75
2022/07/20 06:12:00;;;;;;;8.73;4.00;;;;;;;27.95;46.42;101434.38;5074087;28;20412;-75
2022/07/20 06:14:27;;;;;;;3.95;2.97;;;;;;;27.94;46.81;101427.25;5074779;28;20053;-76
2022/07/20 06:16:55;;;;;;;7.68;3.90;;;;;;;27.93;46.60;101422.00;5074450;28;20067;-76
2022/07/20 06:19:22;;;;;;;7.22;4.50;;;;;;;27.93;46.47;101430.16;5075119;28;20400;-76
2022/07/20 06:21:50;;;;;;;7.80;4.00;;;;;;;27.92;46.69;101429.31;5073170;28;20063;-75
2022/07/20 06:24:18;;;;;;;5.88;5.25;;;;;;;27.88;46.14;101424.41;5074092;28;20044;-75
2022/07/20 06:26:46;;;;;;;10.75;7.40;;;;;;;27.83;46.14;101428.50;5074929;28;20056;-76
2022/07/20 06:29:14;;;;;;;14.40;9.38;;;;;;;27.79;46.09;101434.44;5074767;28;20420;-76
2022/07/20 06:31:42;;;;;;;21.80;13.50;;;;;;;27.75;46.15;101430.34;5074369;28;20405;-77
2022/07/20 06:34:29;;;;;;;16.13;12.02;;;;;;;27.74;46.27;101431.38;5075384;28;20400;-76
2022/07/20 06:36:57;;;;;;;16.98;10.80;;;;;;;27.74;46.67;101431.38;5073824;28;20049;-75
2022/07/20 06:39:24;;;;;;;15.18;10.07;;;;;;;27.76;46.77;101422.03;5073786;28;20053;-75
2022/07/20 06:41:51;;;;;;;11.77;9.45;;;;;;;27.77;46.85;101422.88;5074292;28;20048;-75
2022/07/20 06:44:19;;;;;;;13.77;9.38;;;;;;;27.79;46.85;101432.59;5073872;28;20056;-75
2022/07/20 06:46:46;;;;;;;15.05;10.20;;;;;;;27.81;46.93;101430.53;5072592;28;20059;-75
2022/07/20 06:49:17;;;;;;;15.38;10.60;;;;;;;27.83;46.77;101424.88;5074045;28;20048;-75
2022/07/20 06:51:44;;;;;;;13.90;9.73;;;;;;;27.84;46.80;101426.63;5074179;28;20048;-75
2022/07/20 06:54:12;;;;;;;14.73;11.20;;;;;;;27.86;46.77;101427.28;5074038;28;20041;-75
2022/07/20 06:56:40;;;;;;;16.52;11.32;;;;;;;27.87;46.47;101431.69;5073925;28;20048;-75
2022/07/20 06:59:08;;;;;;;14.90;11.82;;;;;;;27.89;46.37;101434.25;5073901;28;20457;-75
2022/07/20 07:01:36;;;;;;;14.38;11.70;;;;;;;27.90;46.40;101436.78;5074117;28;20036;-75
2022/07/20 07:04:03;;;;;;;17.52;12.25;;;;;;;27.92;46.36;101433.91;5073585;28;20056;-75
2022/07/20 07:06:32;;;;;;;17.42;12.10;;;;;;;27.92;46.54;101434.75;5073496;28;20051;-77
2022/07/20 07:09:00;;;;;;;17.20;11.60;;;;;;;27.93;46.75;101430.16;5073427;28;20044;-77
2022/07/20 07:11:27;;;;;;;18.05;12.23;;;;;;;27.94;46.70;101434.56;5073746;28;20534;-77
2022/07/20 07:13:54;;;;;;;16.13;12.25;;;;;;;27.95;46.45;101439.81;5073962;28;20473;-76
2022/07/20 07:16:24;;;;;;;16.05;12.68;;;;;;;27.95;46.87;101445.28;5092608;28;20066;-76
2022/07/20 07:18:51;;;;;;;17.23;13.60;;;;;;;27.95;46.44;101444.44;5093770;28;20044;-76
2022/07/20 07:21:20;;;;;;;16.45;13.30;;;;;;;27.95;46.49;101448.00;5093195;28;20050;-76
2022/07/20 07:23:49;;;;;;;21.13;14.88;;;;;;;27.97;46.40;101436.94;5093412;28;20047;-76
2022/07/20 07:26:19;;;;;;;20.92;15.45;;;;;;;27.96;46.69;101436.09;5092293;28;20051;-76
2022/07/20 07:28:47;;;;;;;19.13;15.18;;;;;;;27.98;46.59;101441.34;5093804;28;20047;-77
2022/07/20 07:31:17;;;;;;;25.67;17.70;;;;;;;27.97;46.53;101436.94;5075833;28;20444;-76
2022/07/20 07:33:46;;;;;;;24.42;15.65;;;;;;;27.99;46.48;101437.59;5094104;28;20055;-77
2022/07/20 07:36:13;;;;;;;21.35;17.27;;;;;;;27.98;46.29;101434.03;5093539;28;20052;-76
2022/07/20 07:38:41;;;;;;;23.08;17.50;;;;;;;27.99;46.33;101429.44;5091643;28;20048;-77
2022/07/20 07:41:09;;;;;;;23.30;16.60;;;;;;;28.00;46.19;101425.72;5093187;28;20067;-77
2022/07/20 07:43:37;;;;;;;21.63;16.40;;;;;;;28.00;46.45;101431.16;5091386;28;20048;-77
2022/07/20 07:46:05;;;;;;;25.83;17.77;;;;;;;28.00;46.13;101431.16;5093164;28;20059;-77
2022/07/20 07:48:32;;;;;;;23.65;17.52;;;;;;;28.00;46.27;101425.72;5075415;28;20487;-77
2022/07/20 07:51:00;;;;;;;25.73;18.45;;;;;;;28.01;46.17;101421.97;5093235;28;20059;-77
2022/07/20 07:53:27;;;;;;;24.90;17.35;;;;;;;28.01;46.21;101421.97;5091901;28;20055;-77
2022/07/20 07:55:54;;;;;;;23.50;17.30;;;;;;;28.01;46.13;101417.38;5093163;28;20427;-77
2022/07/20 07:58:23;;;;;;;23.67;16.73;;;;;;;28.01;45.86;101420.09;5092570;28;20044;-76
2022/07/20 08:00:51;;;;;;;23.50;17.52;;;;;;;28.02;45.23;101420.94;5093332;28;20044;-76
2022/07/20 08:03:18;;;;;;;21.63;17.25;;;;;;;28.01;44.51;101427.41;5093113;28;20044;-74
2022/07/20 08:05:46;;;;;;;21.95;17.00;;;;;;;28.01;45.08;101421.97;5091732;28;20068;-75
2022/07/20 08:08:15;;;;;;;20.88;16.63;;;;;;;28.01;44.81;101427.41;5092782;28;20487;-76
2022/07/20 08:10:43;;;;;;;21.85;17.40;;;;;;;28.00;44.61;101423.00;5092091;28;20403;-76
2022/07/20 08:13:11;;;;;;;20.15;16.20;;;;;;;28.01;45.11;101413.81;5092933;28;20047;-76
2022/07/20 08:15:41;;;;;;;21.63;16.92;;;;;;;28.00;45.17;101421.13;5093144;28;20071;-76
2022/07/20 08:18:15;;;;;;;20.85;15.88;;;;;;;28.01;45.39;101427.41;5092814;28;20048;-76
2022/07/20 08:20:43;;;;;;;25.20;16.35;;;;;;;28.01;44.93;101422.81;5091718;28;20044;-76
2022/07/20 08:23:10;;;;;;;20.70;14.90;;;;;;;28.01;45.13;101414.66;5092842;28;20051;-76
2022/07/20 08:25:39;;;;;;;16.98;13.93;;;;;;;28.02;44.82;101418.22;5092679;28;20047;-76
2022/07/20 08:28:11;;;;;;;18.33;14.60;;;;;;;28.02;45.11;101410.91;5092641;28;20048;-76
2022/07/20 08:30:41;;;;;;;17.63;13.90;;;;;;;28.01;44.94;101417.38;5093009;28;20033;-76
2022/07/20 08:33:20;;;;;;;17.08;14.02;;;;;;;28.03;45.15;101419.91;5090882;28;20052;-76
2022/07/20 08:35:48;;;;;;;15.55;13.45;;;;;;;28.02;45.16;101412.78;5091121;28;20055;-76
2022/07/20 08:38:15;;;;;;;15.48;13.07;;;;;;;28.04;45.31;101411.59;5092576;28;20044;-76
2022/07/20 08:40:43;;;;;;;16.50;12.75;;;;;;;28.03;44.83;101414.47;5092494;28;20048;-76
2022/07/20 08:43:10;;;;;;;18.35;13.57;;;;;;;28.04;45.13;101416.19;5093352;28;20048;-75
2022/07/20 08:45:38;;;;;;;16.65;12.68;;;;;;;28.04;45.02;101410.75;5094074;28;20056;-76
2022/07/20 08:48:11;;;;;;;15.48;12.35;;;;;;;28.04;44.73;101406.13;5096547;28;20047;-76
2022/07/20 08:50:38;;;;;;;13.77;11.48;;;;;;;28.05;44.83;101398.81;5096119;28;20530;-76
2022/07/20 08:53:05;;;;;;;16.48;13.10;;;;;;;28.05;44.91;101407.84;5096296;28;20503;-76
2022/07/20 08:55:33;;;;;;;15.20;10.98;;;;;;;28.07;44.79;101402.19;5097201;28;20141;-76
2022/07/20 08:58:00;;;;;;;12.95;10.82;;;;;;;28.06;44.92;101400.50;5096308;28;20055;-76
2022/07/20 09:00:28;;;;;;;15.27;11.20;;;;;;;28.07;44.97;101400.31;5096347;28;20110;-76
2022/07/20 09:03:01;;;;;;;14.68;11.30;;;;;;;28.07;45.26;101399.47;5096228;28;20396;-76
2022/07/20 09:05:32;;;;;;;14.82;10.75;;;;;;;28.07;44.62;101403.03;5096098;28;20073;-76
2022/07/20 09:08:01;;;;;;;13.32;9.98;;;;;;;28.08;44.98;101406.63;5096276;28;20403;-76
2022/07/20 09:10:37;;;;;;;13.82;11.00;;;;;;;28.08;44.91;101409.38;5096090;28;20488;-76
2022/07/20 09:13:12;;;;;;;14.05;11.10;;;;;;;28.09;45.00;101409.16;5096550;28;20088;-75
2022/07/20 09:15:43;;;;;;;13.23;10.05;;;;;;;28.08;44.77;101407.47;5094714;28;20048;-76
2022/07/20 09:18:17;;;;;;;12.90;10.38;;;;;;;28.09;44.51;101411.06;5095756;28;20059;-75
2022/07/20 09:20:47;;;;;;;13.27;10.18;;;;;;;28.10;44.78;101410.03;5096133;28;20051;-76
2022/07/20 09:23:18;;;;;;;11.50;9.88;;;;;;;28.10;44.55;101410.88;5096217;28;20048;-75
2022/07/20 09:25:55;;;;;;;11.82;8.98;;;;;;;28.11;44.26;101409.00;5094854;28;20059;-75
2022/07/20 09:28:35;;;;;;;11.18;9.32;;;;;;;28.11;44.68;101403.53;5094614;28;20052;-76
2022/07/20 09:31:08;;;;;;;10.85;9.18;;;;;;;28.10;44.25;101393.69;5095807;28;20044;-76
2022/07/20 09:33:35;;;;;;;10.23;8.32;;;;;;;28.10;44.27;101397.25;5095423;28;20043;-76
2022/07/20 09:36:04;;;;;;;14.60;10.43;;;;;;;28.12;44.44;101397.09;5095353;28;20044;-76
2022/07/20 09:38:35;;;;;;;13.10;9.45;;;;;;;28.12;44.31;101397.09;5095376;28;20048;-76
2022/07/20 09:41:05;;;;;;;12.88;8.43;;;;;;;28.12;44.22;101388.09;5095456;28;20048;-76
2022/07/20 09:43:35;;;;;;;12.48;9.25;;;;;;;28.13;44.35;101384.34;5095231;28;20036;-76
2022/07/20 09:46:14;;;;;;;10.63;8.43;;;;;;;28.13;44.32;101387.91;5095342;28;20040;-76
2022/07/20 09:48:50;;;;;;;9.23;7.45;;;;;;;28.13;44.04;101381.59;5095114;28;20052;-76
2022/07/20 09:51:30;;;;;;;9.80;8.18;;;;;;;28.13;44.19;101378.88;5095504;28;20059;-76
2022/07/20 09:54:08;;;;;;;11.27;7.53;;;;;;;28.13;44.09;101374.28;5093713;28;20415;-76
2022/07/20 09:56:41;;;;;;;11.27;8.10;;;;;;;28.13;43.61;101366.13;5096128;28;20040;-75
2022/07/20 09:59:11;;;;;;;8.73;6.47;;;;;;;28.13;43.45;101366.13;5092844;28;20063;-76
2022/07/20 10:01:44;;;;;;;10.98;7.43;;;;;;;28.13;43.61;101374.28;5095115;28;20040;-75
2022/07/20 10:04:13;;;;;;;9.75;7.85;;;;;;;28.13;43.88;101368.84;5093589;28;20130;-76
2022/07/20 10:06:42;;;;;;;9.88;7.43;;;;;;;28.14;44.03;101364.25;5094105;28;20044;-76
2022/07/20 10:09:11;;;;;;;10.52;6.78;;;;;;;28.14;43.53;101365.09;5094878;28;20044;-76
2022/07/20 10:11:38;;;;;;;7.93;6.30;;;;;;;28.15;43.82;101357.75;5093844;28;20051;-76
2022/07/20 10:14:07;;;;;;;9.95;7.20;;;;;;;28.15;43.70;101365.94;5076245;28;20051;-76
2022/07/20 10:16:47;;;;;;;7.90;6.28;;;;;;;28.17;43.68;101363.91;5093932;28;20067;-76
2022/07/20 10:19:15;;;;;;;8.93;6.63;;;;;;;28.17;44.06;101358.44;5095064;28;20048;-76
2022/07/20 10:21:53;;;;;;;8.43;6.45;;;;;;;28.16;44.05;101365.78;5094887;28;20040;-76
2022/07/20 10:24:29;;;;;;;10.65;7.00;;;;;;;28.17;43.63;101355.72;5094662;28;20040;-75
2022/07/20 10:27:27;;;;;;;7.93;5.97;;;;;;;28.17;43.60;101363.91;5095040;28;20052;-76
2022/07/20 10:29:57;;;;;;;8.38;6.07;;;;;;;28.16;43.52;101357.59;5094578;28;20040;-75
2022/07/20 10:32:28;;;;;;;7.25;5.85;;;;;;;28.18;43.31;101357.41;5094206;28;20059;-75
2022/07/20 10:34:58;;;;;;;8.05;5.68;;;;;;;28.18;42.92;101351.97;5095247;28;20036;-76
2022/07/20 10:37:40;;;;;;;7.95;6.30;;;;;;;28.19;43.14;101362.66;5101122;28;20403;-76
2022/07/20 10:40:20;;;;;;;6.85;5.43;;;;;;;28.17;43.21;101353.00;5098051;28;20052;-76
2022/07/20 10:43:10;;;;;;;7.28;4.93;;;;;;;28.18;43.35;101349.25;5098229;28;20048;-76
2022/07/20 10:45:37;;;;;;;7.55;5.60;;;;;;;28.18;42.59;101352.81;5095497;28;20400;-76
2022/07/20 10:48:14;;;;;;;6.78;4.90;;;;;;;28.18;42.54;101347.38;5094168;28;20126;-75
2022/07/20 10:50:41;;;;;;;7.63;4.97;;;;;;;28.19;42.60;101340.03;5095221;28;20043;-76
2022/07/20 10:53:11;;;;;;;5.32;4.20;;;;;;;28.20;42.66;101333.59;5094409;28;20044;-76
2022/07/20 10:55:47;;;;;;;5.68;4.72;;;;;;;28.19;42.57;101338.16;5093401;28;20066;-76
2022/07/20 10:58:21;;;;;;;7.07;4.60;;;;;;;28.20;42.03;101328.16;5093786;28;20415;-76
2022/07/20 11:00:54;;;;;;;7.43;5.13;;;;;;;28.19;42.40;101329.16;5092035;28;20040;-76
2022/07/20 11:03:25;;;;;;;5.93;4.38;;;;;;;28.20;42.40;101329.00;5092565;28;20384;-77
2022/07/20 11:06:03;;;;;;;6.15;5.07;;;;;;;28.19;42.34;101321.84;5093803;28;20102;-77
2022/07/20 11:08:39;;;;;;;5.80;4.20;;;;;;;28.21;42.48;101327.97;5093833;28;20044;-77
2022/07/20 11:11:13;;;;;;;5.95;4.55;;;;;;;28.19;41.47;101313.66;5093231;28;20365;-76
2022/07/20 11:13:40;;;;;;;6.03;4.35;;;;;;;28.20;42.37;101318.09;5093396;28;20506;-77
2022/07/20 11:16:08;;;;;;;4.43;3.97;;;;;;;28.22;41.98;101309.75;5093494;28;20052;-76
2022/07/20 11:18:35;;;;;;;4.88;4.22;;;;;;;28.22;41.61;101315.19;5093359;28;20036;-76
2022/07/20 11:21:06;;;;;;;5.03;4.05;;;;;;;28.22;41.70;101304.31;5093408;28;20036;-76
2022/07/20 11:23:44;;;;;;;8.38;4.10;;;;;;;28.21;41.78;101299.91;5093393;28;20048;-76
2022/07/20 11:26:14;;;;;;;5.82;3.72;;;;;;;28.22;42.01;101298.84;5093508;28;20507;-76
2022/07/20 11:28:50;;;;;;;6.03;4.03;;;;;;;28.23;41.77;101303.28;5092695;28;20040;-77
2022/07/20 11:31:29;;;;;;;6.38;4.95;;;;;;;28.22;41.97;101287.97;5093260;28;20472;-76
2022/07/20 11:33:59;;;;;;;5.57;3.90;;;;;;;28.23;41.76;101289.66;5095584;28;20051;-77